Time;durP1;ratioP1;P1;durP2;ratioP2;P2;SDS_P1;SDS_P2;PMS_P1;PMS_P2;Temp;Humidity;BMP_temperature;BMP_pressure;BME280_temperature;BME280_humidity;BME280_pressure;Samples;Min_cycle;Max_cycle;Signal;HPM_P1;HPM_P2
2023/12/05 00:00:46;;;;;;;53.97;25.03;;;-5.90;99.90;-7.30;100500;;;;598701;236;23994;-79
2023/12/05 00:03:14;;;;;;;45.50;24.30;;;-6.00;99.90;-7.40;100491;;;;598569;236;23993;-79
2023/12/05 00:05:42;;;;;;;47.83;25.70;;;-6.30;99.90;-7.50;100484;;;;598578;236;23993;-80
2023/12/05 00:08:11;;;;;;;43.30;23.90;;;-6.20;99.90;-7.60;100481;;;;598118;236;24067;-81
2023/12/05 00:10:38;;;;;;;42.67;23.90;;;-5.90;99.90;-7.70;100477;;;;598171;236;23992;-81
2023/12/05 00:13:07;;;;;;;44.53;24.70;;;-6.50;99.90;-7.80;100477;;;;598057;236;24008;-80
2023/12/05 00:15:34;;;;;;;46.87;25.20;;;-6.60;99.90;-7.90;100484;;;;598072;236;24018;-81
2023/12/05 00:18:02;;;;;;;43.00;25.23;;;-6.50;99.90;-7.90;100477;;;;598159;236;24025;-81
2023/12/05 00:20:30;;;;;;;42.80;24.13;;;-6.60;99.90;-8.00;100462;;;;597645;236;24072;-83
2023/12/05 00:22:58;;;;;;;43.97;24.90;;;-6.60;99.90;-8.10;100498;;;;598065;236;24033;-81
2023/12/05 00:25:27;;;;;;;48.43;27.10;;;-6.70;99.90;-8.10;100490;;;;598004;236;24012;-82
2023/12/05 00:27:55;;;;;;;52.40;30.20;;;-6.70;99.90;-8.10;100503;;;;592790;236;34670;-79
2023/12/05 00:30:24;;;;;;;49.70;28.13;;;-6.70;99.90;-8.20;100478;;;;597948;236;24001;-81
2023/12/05 00:32:53;;;;;;;50.10;27.87;;;-6.80;99.90;-8.20;100483;;;;598018;236;25020;-82
2023/12/05 00:35:21;;;;;;;51.17;27.60;;;-6.80;99.90;-8.30;100491;;;;598068;236;24043;-81
2023/12/05 00:37:50;;;;;;;56.57;27.57;;;-6.90;99.90;-8.30;100484;;;;597986;236;25057;-80
2023/12/05 00:40:19;;;;;;;48.20;26.77;;;-6.90;99.90;-8.40;100494;;;;597979;236;24046;-81
2023/12/05 00:42:46;;;;;;;47.20;27.80;;;-6.60;99.90;-8.40;100493;;;;597866;236;24011;-82
2023/12/05 00:45:15;;;;;;;46.20;25.80;;;-7.00;99.90;-8.40;100490;;;;598103;236;24051;-80
2023/12/05 00:47:43;;;;;;;47.87;25.83;;;-7.00;99.90;-8.50;100480;;;;598935;235;23962;-82
2023/12/05 00:50:12;;;;;;;51.20;26.47;;;-7.10;99.90;-8.50;100483;;;;599299;236;25012;-81
2023/12/05 00:52:41;;;;;;;48.70;26.67;;;-7.20;99.90;-8.60;100488;;;;598686;236;25096;-82
2023/12/05 00:55:09;;;;;;;48.33;26.10;;;-7.10;99.90;-8.60;100503;;;;598879;236;23985;-81
2023/12/05 00:57:37;;;;;;;50.67;26.27;;;-7.20;99.90;-8.60;100502;;;;598689;236;23972;-80
2023/12/05 01:00:09;;;;;;;44.67;26.37;;;-7.20;99.90;-8.60;100500;;;;598748;236;23998;-78
2023/12/05 01:02:34;;;;;;;50.23;27.40;;;-7.10;99.90;-8.70;100502;;;;598235;236;24052;-84
2023/12/05 01:05:02;;;;;;;53.93;27.27;;;-7.30;99.90;-8.70;100503;;;;598466;236;23988;-79
2023/12/05 01:07:30;;;;;;;48.10;27.30;;;-7.40;99.90;-8.70;100506;;;;598039;236;25010;-80
2023/12/05 01:09:58;;;;;;;52.13;26.93;;;-7.10;99.90;-8.70;100507;;;;605987;234;23999;-78
2023/12/05 01:12:26;;;;;;;56.27;27.90;;;-7.30;99.90;-8.70;100506;;;;597872;236;23997;-82
2023/12/05 01:14:55;;;;;;;46.70;26.40;;;-7.20;99.90;-8.60;100492;;;;597713;236;24001;-80
2023/12/05 01:17:23;;;;;;;54.70;28.23;;;-7.10;99.90;-8.50;100494;;;;597851;236;24003;-80
2023/12/05 01:19:51;;;;;;;56.97;30.77;;;-7.00;99.90;-8.40;100496;;;;597732;236;24034;-78
2023/12/05 01:22:19;;;;;;;66.57;32.00;;;-6.90;99.90;-8.30;100499;;;;598183;236;24027;-78
2023/12/05 01:24:47;;;;;;;60.30;29.80;;;-6.70;99.90;-8.20;100499;;;;597539;236;24022;-79
2023/12/05 01:27:16;;;;;;;59.90;29.40;;;-6.70;99.90;-8.00;100505;;;;606074;236;23985;-78
2023/12/05 01:29:44;;;;;;;67.70;32.63;;;-6.60;99.90;-7.90;100500;;;;597492;236;24020;-78
2023/12/05 01:32:12;;;;;;;68.27;30.57;;;-6.50;99.90;-7.90;100489;;;;597416;236;23991;-82
2023/12/05 01:34:40;;;;;;;70.13;31.07;;;-6.40;99.90;-7.70;100498;;;;597464;236;24028;-83
2023/12/05 01:37:08;;;;;;;71.30;32.07;;;-6.20;99.90;-7.70;100506;;;;597477;236;24030;-83
2023/12/05 01:39:36;;;;;;;70.00;29.60;;;-6.10;99.90;-7.60;100502;;;;597688;236;24010;-80
2023/12/05 01:42:05;;;;;;;68.43;32.40;;;-6.10;99.90;-7.50;100504;;;;597560;236;24000;-78
2023/12/05 01:44:33;;;;;;;70.63;33.20;;;-6.00;99.90;-7.40;100500;;;;597935;236;24023;-81
2023/12/05 01:47:03;;;;;;;75.20;31.33;;;-5.90;99.90;-7.30;100509;;;;597593;236;24030;-82
2023/12/05 01:49:33;;;;;;;80.03;33.33;;;-6.10;99.90;-7.20;100507;;;;597500;236;24020;-82
2023/12/05 01:51:58;;;;;;;79.63;32.03;;;-5.70;99.90;-7.10;100515;;;;597417;236;24001;-82
2023/12/05 01:54:26;;;;;;;67.87;32.30;;;-5.70;99.90;-7.10;100509;;;;605971;236;24044;-82
2023/12/05 01:57:00;;;;;;;87.57;33.53;;;-5.70;99.90;-7.00;100509;;;;599310;236;24002;-78
2023/12/05 01:59:24;;;;;;;90.57;32.47;;;-5.60;99.90;-6.90;100500;;;;592916;235;34666;-82
2023/12/05 02:01:52;;;;;;;71.23;27.80;;;-5.40;99.90;-6.80;100500;;;;598654;236;24021;-80
2023/12/05 02:04:20;;;;;;;80.40;32.40;;;-5.50;99.90;-6.80;100506;;;;598331;236;24047;-78
2023/12/05 02:06:48;;;;;;;91.97;32.03;;;-5.40;99.90;-6.70;100502;;;;591650;236;23995;-80
2023/12/05 02:09:16;;;;;;;87.97;34.13;;;-5.30;99.90;-6.60;100499;;;;598273;236;24018;-78
2023/12/05 02:11:44;;;;;;;77.33;31.60;;;-5.20;99.90;-6.60;100507;;;;598122;236;24034;-79
2023/12/05 02:14:12;;;;;;;84.87;32.77;;;-5.20;99.90;-6.50;100503;;;;598228;236;24035;-80
2023/12/05 02:17:01;;;;;;;109.10;34.27;;;-5.10;99.90;-6.50;100500;;;;598079;236;24100;-81
2023/12/05 02:19:47;;;;;;;106.57;34.67;;;-5.10;99.90;-6.50;100494;;;;597770;236;23979;-81
2023/12/05 02:23:01;;;;;;;91.07;34.43;;;-5.10;99.90;-6.40;100498;;;;597470;236;24091;-80
2023/12/05 02:26:06;;;;;;;96.70;34.07;;;-5.10;99.90;-6.40;100501;;;;597428;236;24011;-78
2023/12/05 02:28:34;;;;;;;96.53;37.83;;;-5.00;99.90;-6.30;100498;;;;598223;236;24014;-77
2023/12/05 02:31:02;;;;;;;93.83;36.10;;;-5.00;99.90;-6.30;100504;;;;597835;236;24127;-79
2023/12/05 02:33:30;;;;;;;91.70;34.53;;;-4.90;99.90;-6.20;100492;;;;597704;236;23985;-82
2023/12/05 02:36:16;;;;;;;99.00;36.67;;;-4.90;99.90;-6.20;100491;;;;597691;236;24005;-78
2023/12/05 02:38:55;;;;;;;91.37;34.57;;;-4.90;99.90;-6.20;100501;;;;591756;236;24023;-79
2023/12/05 02:41:23;;;;;;;88.30;36.87;;;-4.90;99.90;-6.10;100492;;;;596812;236;24037;-77
2023/12/05 02:44:10;;;;;;;89.63;34.33;;;-4.40;99.90;-6.10;100488;;;;597381;236;24024;-76
2023/12/05 02:46:38;;;;;;;108.37;37.53;;;-4.60;99.90;-6.00;100491;;;;597277;236;24043;-79
2023/12/05 02:49:06;;;;;;;103.50;38.83;;;-4.60;99.90;-6.00;100482;;;;592273;236;34671;-78
2023/12/05 02:51:34;;;;;;;79.37;30.87;;;-4.60;99.90;-6.00;100482;;;;597393;236;23987;-78
2023/12/05 02:54:06;;;;;;;105.17;39.30;;;-4.60;99.90;-5.90;100480;;;;597629;236;24042;-77
2023/12/05 02:56:32;;;;;;;89.97;36.17;;;-4.60;99.90;-5.90;100488;;;;591819;236;25096;-77
2023/12/05 02:59:00;;;;;;;80.73;31.97;;;-4.60;99.90;-5.90;100483;;;;597868;236;25034;-79
2023/12/05 03:01:29;;;;;;;96.83;36.23;;;-4.60;99.90;-5.80;100487;;;;597995;236;24033;-78
2023/12/05 03:03:58;;;;;;;96.50;36.03;;;-4.50;99.90;-5.80;100484;;;;597922;236;23992;-78
2023/12/05 03:06:28;;;;;;;87.53;34.00;;;-4.50;99.90;-5.80;100485;;;;597959;236;24000;-79
2023/12/05 03:08:54;;;;;;;79.57;34.87;;;-4.50;99.90;-5.90;100484;;;;597742;236;24012;-79
2023/12/05 03:11:22;;;;;;;84.30;36.17;;;-4.50;99.90;-5.80;100489;;;;598826;236;24015;-79
2023/12/05 03:13:50;;;;;;;82.23;35.57;;;-4.50;99.90;-5.80;100477;;;;598736;236;24004;-81
2023/12/05 03:16:18;;;;;;;96.57;38.03;;;-4.50;99.90;-5.80;100479;;;;598302;236;23987;-82
2023/12/05 03:18:46;;;;;;;88.87;35.63;;;-4.60;99.90;-5.80;100482;;;;598478;236;24007;-82
2023/12/05 03:21:17;;;;;;;87.30;35.03;;;-4.50;99.90;-5.80;100483;;;;598055;236;24017;-81
2023/12/05 03:23:45;;;;;;;98.18;39.88;;;-4.50;99.90;-5.80;100478;;;;593119;236;34654;-82
2023/12/05 03:26:22;;;;;;;91.23;36.63;;;-4.50;99.90;-5.80;100485;;;;598534;236;24024;-80
2023/12/05 03:28:50;;;;;;;96.03;36.13;;;-4.50;99.90;-5.80;100490;;;;600152;236;23971;-83
2023/12/05 03:31:21;;;;;;;94.50;38.83;;;-4.50;99.90;-5.80;100485;;;;598386;236;23991;-81
2023/12/05 03:33:46;;;;;;;88.20;37.77;;;-3.80;99.90;-5.80;100477;;;;592283;236;25048;-82
2023/12/05 03:36:14;;;;;;;107.13;39.33;;;-4.30;99.90;-5.80;100483;;;;598261;236;24004;-82
2023/12/05 03:38:42;;;;;;;94.97;37.40;;;-4.50;99.90;-5.80;100472;;;;598249;236;23996;-78
2023/12/05 03:41:10;;;;;;;89.73;37.33;;;-4.60;99.90;-5.80;100463;;;;598321;236;25062;-81
2023/12/05 03:43:38;;;;;;;132.77;41.53;;;-4.60;99.90;-5.80;100475;;;;598292;236;23973;-80
2023/12/05 03:46:06;;;;;;;110.20;39.67;;;-4.60;99.90;-5.80;100478;;;;598197;236;23965;-81
2023/12/05 03:48:34;;;;;;;94.53;34.57;;;-4.50;99.90;-5.80;100477;;;;597968;236;24044;-80
2023/12/05 03:51:02;;;;;;;136.40;39.17;;;-4.60;99.90;-5.90;100479;;;;597806;236;24029;-78
2023/12/05 03:53:30;;;;;;;132.00;42.97;;;-4.50;99.90;-5.80;100481;;;;597842;236;25039;-78
2023/12/05 03:55:57;;;;;;;93.70;42.67;;;-4.40;99.90;-5.80;100482;;;;597938;236;24005;-78
2023/12/05 03:58:25;;;;;;;134.17;43.60;;;-4.50;99.90;-5.80;100481;;;;597629;236;23993;-79
2023/12/05 04:00:54;;;;;;;119.80;43.43;;;-4.50;99.90;-5.80;100478;;;;591369;236;24028;-77
2023/12/05 04:03:22;;;;;;;106.40;42.97;;;-4.50;99.90;-5.70;100483;;;;597543;236;23994;-79
2023/12/05 04:05:50;;;;;;;130.00;46.83;;;-4.40;99.90;-5.70;100482;;;;592387;236;34717;-80
2023/12/05 04:08:17;;;;;;;123.73;38.53;;;-4.40;99.90;-5.80;100488;;;;597439;232;24008;-78
2023/12/05 04:10:45;;;;;;;126.80;42.23;;;-4.50;99.90;-5.80;100485;;;;597916;236;23999;-79
2023/12/05 04:13:14;;;;;;;166.10;43.20;;;-4.50;99.90;-5.80;100492;;;;597970;236;24332;-77
2023/12/05 04:15:42;;;;;;;124.63;41.50;;;-4.50;99.90;-5.80;100484;;;;597970;236;24004;-78
2023/12/05 04:18:10;;;;;;;128.43;43.80;;;-4.50;99.90;-5.90;100487;;;;597908;236;25031;-80
2023/12/05 04:20:37;;;;;;;138.60;44.53;;;-4.60;99.90;-5.90;100485;;;;592722;236;34654;-78
2023/12/05 04:23:06;;;;;;;102.40;34.63;;;-4.60;99.90;-5.90;100487;;;;599188;236;24013;-77
2023/12/05 04:25:34;;;;;;;122.07;40.57;;;-4.50;99.90;-5.90;100485;;;;599092;236;24024;-82
2023/12/05 04:28:02;;;;;;;131.77;43.13;;;-4.60;99.90;-5.90;100489;;;;598519;236;23987;-78
2023/12/05 04:30:30;;;;;;;146.80;42.10;;;-4.40;99.90;-6.00;100478;;;;598334;236;23992;-78
2023/12/05 04:32:58;;;;;;;189.97;42.87;;;-4.70;99.90;-6.00;100488;;;;598263;236;24020;-78
2023/12/05 04:35:26;;;;;;;169.20;45.80;;;-4.70;99.90;-6.00;100487;;;;598165;236;23984;-78
2023/12/05 04:37:54;;;;;;;136.07;44.23;;;-4.80;99.90;-6.10;100483;;;;598045;236;24048;-78
2023/12/05 04:40:22;;;;;;;147.93;45.40;;;-4.80;99.90;-6.10;100483;;;;598092;236;23999;-79
2023/12/05 04:42:50;;;;;;;143.67;44.67;;;-4.90;99.90;-6.10;100487;;;;597729;236;24049;-79
2023/12/05 04:45:18;;;;;;;126.33;44.77;;;-4.70;99.90;-6.10;100491;;;;598015;236;23995;-78
2023/12/05 04:47:46;;;;;;;113.37;43.33;;;-4.90;99.90;-6.20;100500;;;;597735;236;23987;-78
2023/12/05 04:50:14;;;;;;;138.53;44.60;;;-4.90;99.90;-6.20;100493;;;;597736;236;24027;-78
2023/12/05 04:52:42;;;;;;;163.63;43.50;;;-5.00;99.90;-6.20;100498;;;;597906;236;23995;-79
2023/12/05 04:55:10;;;;;;;117.70;40.23;;;-5.10;99.90;-6.20;100484;;;;597768;236;25039;-79
2023/12/05 04:57:38;;;;;;;126.87;42.60;;;-4.90;99.90;-6.20;100492;;;;598227;236;23985;-79
2023/12/05 05:00:06;;;;;;;93.27;40.53;;;-4.70;99.90;-6.30;100491;;;;597515;236;23985;-80
2023/12/05 05:02:34;;;;;;;134.73;42.03;;;-4.90;99.90;-6.20;100492;;;;597225;236;24029;-77
2023/12/05 05:05:02;;;;;;;137.23;42.80;;;-5.00;99.90;-6.30;100486;;;;582106;238;24107;-87
2023/12/05 05:07:31;;;;;;;95.47;40.07;;;-4.90;99.90;-6.30;100488;;;;574747;244;24113;-87
2023/12/05 05:10:04;;;;;;;102.70;39.77;;;-5.00;99.90;-6.30;100491;;;;574408;246;24157;-86
2023/12/05 05:12:29;;;;;;;139.67;42.40;;;-5.00;99.90;-6.30;100495;;;;573916;246;24101;-88
2023/12/05 05:15:01;;;;;;;105.43;41.03;;;-5.20;99.90;-6.30;100496;;;;583352;246;24104;-88
2023/12/05 05:17:25;;;;;;;94.47;40.40;;;-5.00;99.90;-6.30;100502;;;;574468;246;24134;-88
2023/12/05 05:19:56;;;;;;;115.27;44.37;;;-5.00;99.90;-6.30;100491;;;;574895;246;25126;-87
2023/12/05 05:22:25;;;;;;;187.37;45.90;;;-4.90;99.90;-6.20;100490;;;;574818;246;24103;-90
2023/12/05 05:24:53;;;;;;;141.83;42.03;;;-4.80;99.90;-6.20;100490;;;;574671;246;24089;-88
2023/12/05 05:27:22;;;;;;;118.20;41.97;;;-4.90;99.90;-6.20;100480;;;;575044;243;24104;-87
2023/12/05 05:29:50;;;;;;;135.00;41.70;;;-4.90;99.90;-6.20;100483;;;;575156;246;24161;-87
2023/12/05 05:32:15;;;;;;;153.37;39.63;;;-4.90;99.90;-6.20;100491;;;;575161;246;24099;-87
2023/12/05 05:34:43;;;;;;;102.73;36.63;;;-4.70;99.90;-6.20;100486;;;;576287;245;24098;-88
2023/12/05 05:37:12;;;;;;;149.30;38.90;;;-4.90;99.90;-6.30;100489;;;;576401;245;24102;-87
2023/12/05 05:39:43;;;;;;;90.27;36.87;;;-5.10;99.90;-6.30;100486;;;;576285;245;24111;-88
2023/12/05 05:42:11;;;;;;;106.17;35.67;;;-5.00;99.90;-6.30;100490;;;;575728;245;24155;-87
2023/12/05 05:44:41;;;;;;;105.07;38.73;;;-5.00;99.90;-6.30;100490;;;;575139;245;24097;-88
2023/12/05 05:47:09;;;;;;;209.70;41.30;;;-5.00;99.90;-6.30;100488;;;;575667;245;24100;-89
2023/12/05 05:49:38;;;;;;;106.20;37.17;;;-5.10;99.90;-6.30;100486;;;;575111;245;24105;-87
2023/12/05 05:52:03;;;;;;;84.40;37.07;;;-5.00;99.90;-6.30;100483;;;;575276;245;25153;-88
2023/12/05 05:54:35;;;;;;;81.03;37.73;;;-5.10;99.90;-6.30;100488;;;;575416;245;24287;-88
2023/12/05 05:57:00;;;;;;;105.20;39.90;;;-5.00;99.90;-6.30;100490;;;;572022;250;24120;-87
2023/12/05 05:59:28;;;;;;;95.33;40.13;;;-5.00;99.90;-6.30;100491;;;;585143;241;24178;-89
2023/12/05 06:01:58;;;;;;;92.20;37.37;;;-5.00;99.90;-6.30;100486;;;;584814;241;24050;-88
2023/12/05 06:04:28;;;;;;;89.47;35.90;;;-5.10;99.90;-6.40;100485;;;;573365;246;24116;-87
2023/12/05 06:06:55;;;;;;;151.30;39.00;;;-5.10;99.90;-6.40;100482;;;;584440;241;24077;-88
2023/12/05 06:09:21;;;;;;;117.40;36.10;;;-5.10;99.90;-6.50;100480;;;;584243;242;24079;-88
2023/12/05 06:11:50;;;;;;;115.67;37.10;;;-5.30;99.90;-6.50;100480;;;;573820;246;24133;-88
2023/12/05 06:14:21;;;;;;;105.10;36.20;;;-5.30;99.90;-6.60;100479;;;;585106;242;24076;-88
2023/12/05 06:16:48;;;;;;;84.10;36.13;;;-5.30;99.90;-6.60;100488;;;;584911;242;24047;-87
2023/12/05 06:19:19;;;;;;;110.53;37.67;;;-5.20;99.90;-6.60;100484;;;;574420;246;24094;-87
2023/12/05 06:21:48;;;;;;;77.33;36.43;;;-5.30;99.90;-6.60;100485;;;;584764;242;24041;-88
2023/12/05 06:24:16;;;;;;;146.23;45.40;;;-5.30;99.90;-6.60;100488;;;;584529;242;24083;-88
2023/12/05 06:26:41;;;;;;;107.37;40.53;;;-5.30;99.90;-6.60;100484;;;;584305;242;24062;-88
2023/12/05 06:29:12;;;;;;;85.93;38.53;;;-5.30;99.90;-6.60;100492;;;;584168;242;24071;-88
2023/12/05 06:31:41;;;;;;;76.50;35.67;;;-5.30;99.90;-6.60;100498;;;;583872;242;24032;-87
2023/12/05 06:34:09;;;;;;;94.00;37.07;;;-5.00;99.90;-6.60;100496;;;;583456;242;24046;-86
2023/12/05 06:36:34;;;;;;;82.70;35.38;;;-5.20;99.90;-6.60;100493;;;;578653;242;35041;-87
2023/12/05 06:39:08;;;;;;;70.73;32.10;;;-5.30;99.90;-6.70;100500;;;;584086;242;24047;-87
2023/12/05 06:41:33;;;;;;;82.20;37.17;;;-5.30;99.90;-6.70;100504;;;;583964;242;24132;-87
2023/12/05 06:44:02;;;;;;;78.90;37.73;;;-5.40;99.90;-6.80;100494;;;;584274;242;24069;-88
2023/12/05 06:46:32;;;;;;;82.00;38.57;;;-5.50;99.90;-6.80;100498;;;;585584;241;24073;-87
2023/12/05 06:48:58;;;;;;;78.77;36.90;;;-5.50;99.90;-6.80;100499;;;;585127;241;24050;-87
2023/12/05 06:51:26;;;;;;;75.33;37.50;;;-5.50;99.90;-6.90;100491;;;;585054;241;24048;-87
2023/12/05 06:53:54;;;;;;;76.97;37.67;;;-5.60;99.90;-7.00;100487;;;;585157;241;24076;-86
2023/12/05 06:56:22;;;;;;;75.77;37.07;;;-5.30;99.90;-7.00;100490;;;;584838;241;24112;-87
2023/12/05 06:58:53;;;;;;;78.50;37.57;;;-5.80;99.90;-7.10;100496;;;;584495;241;24069;-86
2023/12/05 07:01:18;;;;;;;76.27;36.57;;;-5.70;99.90;-7.10;100494;;;;584169;241;24068;-88
2023/12/05 07:03:49;;;;;;;79.67;39.43;;;-5.80;99.90;-7.20;100495;;;;584589;241;24065;-88
2023/12/05 07:06:14;;;;;;;77.60;36.87;;;-5.80;99.90;-7.20;100493;;;;584287;241;24115;-88
2023/12/05 07:08:46;;;;;;;74.53;36.87;;;-5.80;99.90;-7.20;100493;;;;584331;241;24063;-88
2023/12/05 07:11:11;;;;;;;80.20;38.13;;;-5.90;99.90;-7.30;100492;;;;572731;246;24086;-87
2023/12/05 07:13:39;;;;;;;74.47;37.50;;;-5.90;99.90;-7.30;100488;;;;584113;241;24101;-87
2023/12/05 07:16:11;;;;;;;76.83;38.23;;;-5.90;99.90;-7.30;100484;;;;584048;241;24070;-87
2023/12/05 07:18:37;;;;;;;78.17;37.97;;;-5.90;99.90;-7.30;100475;;;;583879;241;24062;-87
2023/12/05 07:21:08;;;;;;;77.57;35.93;;;-5.90;99.90;-7.30;100484;;;;583923;242;25107;-87
2023/12/05 07:23:36;;;;;;;77.57;37.47;;;-5.90;99.90;-7.20;100483;;;;590347;242;24045;-87
2023/12/05 07:26:04;;;;;;;71.57;36.00;;;-5.80;99.90;-7.20;100487;;;;583692;242;24063;-88
2023/12/05 07:28:35;;;;;;;80.53;38.47;;;-5.80;99.90;-7.20;100489;;;;583663;242;24088;-88
2023/12/05 07:31:03;;;;;;;86.83;41.20;;;-5.80;99.90;-7.10;100493;;;;580754;242;24051;-87
2023/12/05 07:33:30;;;;;;;83.87;39.27;;;-5.80;99.90;-7.10;100490;;;;567710;250;24120;-88
2023/12/05 07:35:57;;;;;;;85.23;41.50;;;-5.70;99.90;-7.10;100485;;;;583846;242;24076;-88
2023/12/05 07:38:28;;;;;;;83.77;43.20;;;-5.70;99.90;-7.00;100484;;;;583142;242;24098;-88
2023/12/05 07:40:55;;;;;;;78.43;41.87;;;-5.60;99.90;-7.00;100482;;;;583593;242;24061;-88
2023/12/05 07:43:20;;;;;;;83.50;41.43;;;-5.60;99.90;-7.00;100491;;;;583767;242;24068;-88
2023/12/05 07:45:48;;;;;;;77.60;40.23;;;-5.50;99.90;-6.90;100489;;;;582992;242;24048;-88
2023/12/05 07:48:16;;;;;;;78.73;40.10;;;-5.50;99.90;-6.90;100489;;;;583897;242;24064;-87
2023/12/05 07:50:44;;;;;;;79.83;39.67;;;-5.50;99.90;-6.90;100492;;;;583973;242;24102;-88
2023/12/05 07:53:12;;;;;;;76.50;39.23;;;-5.40;99.90;-6.80;100483;;;;583928;242;24074;-87
2023/12/05 07:55:40;;;;;;;78.63;40.17;;;-5.50;99.90;-6.80;100483;;;;583934;242;24104;-88
2023/12/05 07:58:08;;;;;;;79.87;41.33;;;-5.40;99.90;-6.80;100484;;;;585773;241;24070;-87
2023/12/05 08:00:39;;;;;;;69.13;36.37;;;-5.20;99.90;-6.90;100474;;;;584935;241;24044;-87
2023/12/05 08:03:04;;;;;;;76.50;40.20;;;-5.70;99.90;-6.90;100485;;;;584823;241;24081;-87
2023/12/05 08:05:33;;;;;;;78.13;38.67;;;-5.50;99.90;-7.00;100480;;;;584642;241;24049;-87
2023/12/05 08:08:02;;;;;;;85.87;41.67;;;-5.50;99.90;-7.00;100480;;;;584225;241;24028;-86
2023/12/05 08:10:30;;;;;;;83.70;39.53;;;-5.70;99.90;-7.00;100477;;;;584077;241;24053;-86
2023/12/05 08:12:59;;;;;;;87.77;39.77;;;-5.60;99.90;-7.00;100479;;;;584285;241;24043;-87
2023/12/05 08:15:30;;;;;;;82.67;39.80;;;-5.60;99.90;-7.00;100482;;;;584049;241;24092;-88
2023/12/05 08:17:55;;;;;;;76.77;38.70;;;-5.60;99.90;-7.00;100482;;;;583880;241;24041;-88
2023/12/05 08:20:23;;;;;;;78.33;36.87;;;-5.30;99.90;-7.00;100486;;;;583983;241;24090;-88
2023/12/05 08:22:51;;;;;;;77.07;36.83;;;-5.50;99.90;-7.00;100492;;;;584035;241;24110;-87
2023/12/05 08:25:20;;;;;;;74.53;37.67;;;-5.60;99.90;-7.00;100488;;;;584081;241;24074;-87
2023/12/05 08:27:48;;;;;;;70.57;37.73;;;-5.60;99.90;-6.90;100481;;;;584182;241;24058;-87
2023/12/05 08:30:16;;;;;;;70.27;34.83;;;-5.40;99.90;-6.90;100486;;;;584034;241;24126;-86
2023/12/05 08:32:44;;;;;;;83.03;39.57;;;-5.50;99.90;-6.90;100490;;;;584620;242;24064;-86
2023/12/05 08:35:12;;;;;;;67.87;35.03;;;-5.50;99.90;-6.90;100491;;;;584177;242;24056;-88
2023/12/05 08:37:43;;;;;;;73.43;38.30;;;-5.50;99.90;-6.90;100493;;;;584203;242;25093;-87
2023/12/05 08:40:11;;;;;;;72.67;36.07;;;-5.40;99.90;-6.90;100492;;;;584328;242;24063;-87
2023/12/05 08:42:36;;;;;;;68.10;36.20;;;-5.40;99.90;-6.80;100494;;;;583992;242;24055;-87
2023/12/05 08:45:08;;;;;;;69.10;36.23;;;-5.30;99.90;-6.70;100491;;;;583764;242;24076;-86
2023/12/05 08:47:32;;;;;;;68.77;34.63;;;-5.30;99.90;-6.70;100488;;;;583558;242;24077;-87
2023/12/05 08:50:04;;;;;;;73.93;36.63;;;-5.30;99.90;-6.70;100495;;;;583735;242;25219;-87
2023/12/05 08:52:29;;;;;;;74.97;37.53;;;-5.20;99.90;-6.60;100493;;;;580283;242;24089;-88
2023/12/05 08:55:00;;;;;;;73.67;38.63;;;-5.20;99.90;-6.50;100495;;;;590640;242;24061;-87
2023/12/05 08:57:26;;;;;;;71.60;37.00;;;-5.20;99.90;-6.40;100503;;;;584177;242;24083;-87
2023/12/05 08:59:56;;;;;;;69.97;37.80;;;-5.10;99.90;-6.40;100503;;;;584276;242;24080;-87
2023/12/05 09:02:21;;;;;;;69.43;37.03;;;-5.00;99.90;-6.30;100507;;;;573505;246;25167;-88
2023/12/05 09:04:49;;;;;;;74.97;37.53;;;-5.00;99.90;-6.30;100512;;;;584582;242;24043;-88
2023/12/05 09:07:21;;;;;;;71.03;35.65;;;-4.90;99.90;-6.20;100507;;;;579432;242;45934;-88
2023/12/05 09:09:49;;;;;;;66.20;28.90;;;-4.80;99.90;-6.20;100515;;;;586322;241;26332;-86
2023/12/05 09:12:14;;;;;;;69.17;34.70;;;-4.80;99.90;-6.10;100511;;;;586071;241;24050;-87
2023/12/05 09:14:46;;;;;;;70.13;33.33;;;-4.70;99.90;-6.00;100513;;;;585904;241;24119;-87
2023/12/05 09:17:13;;;;;;;68.73;34.57;;;-4.60;99.90;-6.00;100509;;;;585488;241;24049;-86
2023/12/05 09:19:41;;;;;;;66.17;34.47;;;-4.60;99.90;-5.90;100515;;;;585818;241;24063;-85
2023/12/05 09:22:12;;;;;;;57.73;32.73;;;-4.60;99.90;-5.90;100504;;;;575083;245;24090;-86
2023/12/05 09:24:44;;;;;;;63.47;33.37;;;-4.50;99.90;-5.80;100503;;;;574753;245;24167;-86
2023/12/05 09:27:08;;;;;;;59.80;31.67;;;-4.50;99.90;-5.80;100498;;;;585312;241;24044;-86
2023/12/05 09:29:40;;;;;;;59.43;30.47;;;-4.50;99.90;-5.80;100510;;;;585321;241;24065;-86
2023/12/05 09:32:05;;;;;;;57.37;30.37;;;-4.50;99.90;-5.80;100504;;;;585551;241;24061;-87
2023/12/05 09:34:35;;;;;;;53.43;28.57;;;-4.40;99.90;-5.80;100509;;;;595165;241;24039;-87
2023/12/05 09:37:06;;;;;;;58.37;28.00;;;-4.40;99.90;-5.70;100501;;;;584997;241;24055;-87
2023/12/05 09:39:40;;;;;;;50.47;27.87;;;-4.40;99.90;-5.70;100503;;;;585000;241;24101;-88
2023/12/05 09:42:04;;;;;;;52.33;25.87;;;-4.40;99.90;-5.80;100495;;;;589528;241;24062;-86
2023/12/05 09:44:38;;;;;;;44.13;23.57;;;-4.50;99.90;-5.80;100502;;;;582972;242;24183;-87
2023/12/05 09:47:05;;;;;;;46.27;25.20;;;-4.50;99.90;-5.80;100507;;;;583175;242;24048;-86
2023/12/05 09:49:32;;;;;;;47.30;25.63;;;-4.40;99.90;-5.80;100498;;;;588281;240;45836;-85
2023/12/05 09:51:58;;;;;;;47.20;25.62;;;-4.40;99.90;-5.80;100495;;;;578881;242;34925;-89
2023/12/05 09:54:26;;;;;;;41.40;20.67;;;-4.40;99.90;-5.80;100488;;;;584248;242;25132;-88
2023/12/05 09:56:57;;;;;;;40.77;23.77;;;-4.40;99.90;-5.70;100500;;;;583983;242;24083;-87
2023/12/05 09:59:26;;;;;;;50.27;25.70;;;-4.50;99.90;-5.70;100494;;;;583808;242;24077;-88
2023/12/05 10:01:51;;;;;;;46.13;23.33;;;-4.30;99.90;-5.70;100481;;;;584217;242;24065;-89
2023/12/05 10:04:24;;;;;;;41.10;22.30;;;-4.30;99.90;-5.60;100487;;;;583899;242;24069;-87
2023/12/05 10:06:55;;;;;;;45.23;24.03;;;-0.20;99.90;-5.60;100482;;;;584372;242;24061;-87
2023/12/05 10:09:23;;;;;;;44.57;24.77;;;-4.20;99.90;-5.50;100481;;;;590536;242;24056;-87
2023/12/05 10:11:51;;;;;;;42.03;23.57;;;-4.20;99.90;-5.50;100480;;;;583254;242;24066;-87
2023/12/05 10:14:16;;;;;;;34.87;21.47;;;-4.10;99.90;-5.50;100480;;;;583543;242;24083;-87
2023/12/05 10:16:53;;;;;;;38.93;21.73;;;-4.20;99.90;-5.40;100485;;;;594619;242;24068;-88
2023/12/05 10:19:20;;;;;;;40.87;21.80;;;-4.10;99.90;-5.40;100480;;;;583598;242;24083;-88
2023/12/05 10:21:52;;;;;;;41.87;22.20;;;-4.10;99.90;-5.40;100488;;;;585574;241;24054;-87
2023/12/05 10:24:23;;;;;;;42.60;23.70;;;-4.00;99.90;-5.30;100489;;;;583190;241;24039;-88
2023/12/05 10:26:48;;;;;;;37.40;21.20;;;-4.00;99.90;-5.30;100488;;;;593829;241;24069;-88
2023/12/05 10:29:20;;;;;;;39.40;22.53;;;-3.90;99.90;-5.20;100488;;;;584337;241;24177;-87
2023/12/05 10:31:45;;;;;;;42.53;22.23;;;-3.90;99.90;-5.20;100486;;;;582851;241;24068;-86
2023/12/05 10:34:13;;;;;;;42.50;22.30;;;-3.80;99.90;-5.10;100485;;;;584837;241;24046;-87
2023/12/05 10:36:44;;;;;;;42.73;22.50;;;-3.80;99.90;-5.10;100476;;;;584912;241;24039;-88
2023/12/05 10:39:16;;;;;;;38.30;20.40;;;-3.80;99.90;-5.10;100481;;;;589646;241;24122;-88
2023/12/05 10:41:48;;;;;;;44.33;21.80;;;-3.70;99.90;-5.00;100472;;;;584372;241;24068;-88
2023/12/05 10:44:19;;;;;;;43.97;22.30;;;-3.70;99.90;-5.00;100473;;;;593306;241;24077;-87
2023/12/05 10:46:47;;;;;;;40.93;22.50;;;-3.60;99.90;-5.00;100474;;;;584194;241;24032;-88
2023/12/05 10:49:18;;;;;;;37.57;21.20;;;-3.60;99.90;-4.90;100474;;;;584350;241;24067;-86
2023/12/05 10:51:44;;;;;;;42.83;23.70;;;-3.60;99.90;-4.80;100476;;;;573191;246;24132;-88
2023/12/05 10:54:15;;;;;;;37.90;21.70;;;-3.70;99.90;-4.80;100468;;;;583941;241;24084;-87
2023/12/05 10:56:42;;;;;;;48.83;24.13;;;-3.50;99.90;-4.80;100473;;;;583059;242;25127;-87
2023/12/05 10:59:17;;;;;;;37.23;21.80;;;-3.40;99.90;-4.80;100471;;;;582574;242;24096;-87